Terminal Aerodrome Forecast
Issued by NWS Glasgow, MT

Home | Current Version | Previous Version | Text Only | Print | Product List | Glossary On
Versions: 1 2 3 4 5 6 7 8 9 10 11 12 13 14 15
035
FTUS45 KGGW 281725
TAFGGW
TAF
KGGW 281725Z 2818/2918 15012KT P6SM VCSH SCT060 BKN120
     FM282000 16011KT P6SM BKN120
     FM290000 20007KT P6SM SCT150=

USA.gov is the U.S. government's official web portal to all federal, state and local government web resources and services.